Medvezegorsk, Russia
Current Conditions -  °F | °C
As of 1:30 PM on Thursday 23 Oct 2014 (Local Time) from ULPB Reporting Station
Clear Clear  
Wind Chill: 22°   Ceiling: Unl
Heat Index: 30°   Visibility: 6mi
Dew Point: 23°   Wind: 9mph
Humidity: 75%   Direction: 360°N
Pressure: 30.56"   Gusts: NA
Location:  62.92°N, 34.43°E
Report Text: ULPB 231030Z 36004MPS CAVOK M01/M05 Q1035 NOSIG RMK QFE772/1030SC050
Loading
Personal Weather Stations






























Interactive Weather Map
Tropical Storm Tracking
New forecast layout! Learn more

10-Day Weather Forecast

Advertisements
Track Severe Weather on mobile